Авиационная погода в Витебске

Регион: 
Погода METAR: 
UMII 282200Z 08003MPS CAVOK 22/17 Q1019 TEMPO 2000 TSRA BKN007 BKN017CB
Время наблюдения
2022-06-28T22:00:00Z
Температура C
22.0
Точка росы
17.0
Направление ветра
80
Скорость ветра (узлы)
6
Метео видимость
6.21
Облачность
CAVOK
Нижняя граница облачности (футы)
Явления погоды
Условия полета
VFR